Flight Track Log - Related Links

Times and Time Zones

All times are in EDT time to prevent confusion due to time zone crossing. See the EJA922 flight status page for this flight to view local times or setup timezone preferences in your user account.

Time Position Orientation Groundspeed Altitude Reporting Facility
EDT Latitude Longitude Course Direction KTS MPH feet Rate Location/Type
Thu 04:39:07 PM 39.1531 -96.5975 80° East 233 268 4,900  Level Kansas City Center
Thu 04:40:09 PM 39.1708 -96.5164 74° East 233 268 6,000 484 Climbing Kansas City Center
Thu 04:41:11 PM 39.2328 -96.4786 25° Northeast 245 282 5,900  Descending Kansas City Center
Thu 04:42:13 PM 39.3011 -96.4611 11° North 243 280 6,000 871 Climbing Kansas City Center
Thu 04:43:15 PM 39.3669 -96.4431 12° North 233 268 7,700 2,468 Climbing Kansas City Center
Thu 04:44:17 PM 39.4406 -96.4214 13° North 255 293 11,100 2,661 Climbing Kansas City Center
Thu 04:45:19 PM 39.5244 -96.3969 13° North 311 358 13,200 2,177 Climbing Kansas City Center
Thu 04:46:21 PM 39.6247 -96.3689 12° North 348 400 15,600 2,081 Climbing Kansas City Center
Thu 04:47:23 PM 39.7197 -96.3419 12° North 359 413 17,500 1,839 Climbing Kansas City Center
Thu 04:48:25 PM 39.8367 -96.3089 12° North 378 435 19,400 1,355 Climbing Kansas City Center
Thu 04:49:27 PM 39.9436 -96.2783 12° North 391 450 20,300 768 Climbing Kansas City Center
Thu 04:50:30 PM 40.0486 -96.2486 12° North 389 448 21,000 336 Climbing Kansas City Center
Thu 04:51:32 PM 40.1539 -96.2186 12° North 388 447 21,000 -435 Level Kansas City Center
Thu 04:52:34 PM 40.2611 -96.1964 North 387 445 20,100 -1,258 Descending Kansas City Center
Thu 04:53:36 PM 40.3831 -96.1758 North 394 453 18,400 -1,721 Descending Kansas City Center
Thu 04:54:36 PM 40.4833 -96.1522 10° North 347 399 16,600 -1,500 Descending Minneapolis Center
Thu 04:55:04 PM 40.5178 -96.1608 349° North 365 420 16,200 -1,500 Descending Minneapolis Center
Thu 04:55:36 PM 40.5747 -96.1392 16° North 336 387 15,100 -1,452 Descending Minneapolis Center
Thu 04:56:06 PM 40.6072 -96.1442 353° North 338 389 14,700 -1,745 Descending Minneapolis Center
Thu 04:56:31 PM 40.6481 -96.1092 33° Northeast 304 350 13,500 -2,129 Descending Minneapolis Center
Thu 04:57:08 PM 40.7006 -96.0922 14° North 307 353 12,500 -1,770 Descending Minneapolis Center
Thu 04:57:32 PM 40.7250 -96.0703 34° Northeast 293 337 11,700 -1,645 Descending Minneapolis Center
Thu 04:58:10 PM 40.7742 -96.0522 16° North 295 339 10,800 -1,800 Descending Minneapolis Center
Thu 04:58:32 PM 40.8039 -96.0283 31° Northeast 278 320 9,900 -1,742 Descending Minneapolis Center
Thu 04:59:12 PM 40.8447 -96.0139 15° North 283 326 9,000 -1,714 Descending Minneapolis Center
Thu 04:59:28 PM 40.8667 -95.9964 31° Northeast 268 308 8,300 -1,569 Descending Minneapolis Center
Thu 05:00:17 PM 40.9125 -95.9783 17° North 273 314 7,300 -1,424 Descending Minneapolis Center
Thu 05:00:27 PM 40.9356 -95.9636 26° Northeast 254 292 6,900 -1,355 Descending Minneapolis Center
Thu 05:01:19 PM 40.9861 -95.9394 20° North 255 293 5,900 -1,158 Descending Minneapolis Center
Thu 05:02:21 PM 41.0436 -95.9069 23° Northeast 239 275 4,700 -1,105 Descending Minneapolis Center
Thu 05:02:35 PM 41.0611 -95.8967 24° Northeast 233 268 4,500 -677 Descending Minneapolis Center
Thu 05:03:23 PM 41.1044 -95.8753 20° North 236 272 4,000 -486 Descending Minneapolis Center
Thu 05:04:26 PM 41.1622 -95.8439 22° Northeast 234 269 3,600 -480 Descending Minneapolis Center
Thu 05:05:28 PM 41.2069 -95.8192 23° Northeast 200 230 3,000 -706 Descending Minneapolis Center
Thu 05:06:25 PM 41.2433 -95.8394 337° Northwest 126 145 2,200 -712 Descending Minneapolis Center
Thu 05:07:26 PM 41.2725 -95.8667 325° Northwest 132 152 1,600 -558 Descending Minneapolis Center
Thu 05:08:34 PM 41.3064 -95.8936 329° Northwest 134 154 1,000 -529 Descending Minneapolis Center
Thu 05:10:00 PM 41.3000 -95.8833 323° Northwest  Level FlightAware Approximate

Login

Don't have an account? Register now (free) for customized features, flight alerts, and more!